Terminal Aerodrome Forecast
Issued by NWS Flagstaff, AZ

Home | Current Version | Previous Version | Text Only | Print | Product List | Glossary On
Versions: 1 2 3 4 5 6 7 8 9 10 11 12 13 14 15 16 17 18 19 20 21 22 23 24 25 26
000
FTUS45 KFGZ 192340
TAFFLG
TAF
KFLG 192340Z 2000/2024 25025G40KT 2SM -SN FEW015 OVC035
     FM200200 23008KT P6SM SCT030
      TEMPO 2002/2006 4SM -SHSN BKN030
     FM201800 24010G20KT P6SM SCT250=

USA.gov is the U.S. government's official web portal to all federal, state and local government web resources and services.